sensor_id;sensor_type;location;lat;lon;timestamp;temperature;humidity
81161;DHT22;70637;48.514;14.500;2023-08-24T00:02:01;29.90;38.70
81161;DHT22;70637;48.514;14.500;2023-08-24T00:04:27;29.90;38.60
81161;DHT22;70637;48.514;14.500;2023-08-24T00:06:53;29.80;38.50
81161;DHT22;70637;48.514;14.500;2023-08-24T00:09:19;29.80;38.50
81161;DHT22;70637;48.514;14.500;2023-08-24T00:11:45;29.80;38.40
81161;DHT22;70637;48.514;14.500;2023-08-24T00:14:10;29.80;38.40
81161;DHT22;70637;48.514;14.500;2023-08-24T00:16:37;29.80;38.40
81161;DHT22;70637;48.514;14.500;2023-08-24T00:19:02;29.80;38.30
81161;DHT22;70637;48.514;14.500;2023-08-24T00:21:28;29.80;38.30
81161;DHT22;70637;48.514;14.500;2023-08-24T00:23:54;29.80;38.30
81161;DHT22;70637;48.514;14.500;2023-08-24T00:26:20;29.80;38.20
81161;DHT22;70637;48.514;14.500;2023-08-24T00:28:46;29.80;38.20
81161;DHT22;70637;48.514;14.500;2023-08-24T00:31:12;29.80;38.10
81161;DHT22;70637;48.514;14.500;2023-08-24T00:33:38;29.80;38.20
81161;DHT22;70637;48.514;14.500;2023-08-24T00:36:05;29.80;38.10
81161;DHT22;70637;48.514;14.500;2023-08-24T00:38:31;29.80;38.10
81161;DHT22;70637;48.514;14.500;2023-08-24T00:40:57;29.80;38.10
81161;DHT22;70637;48.514;14.500;2023-08-24T00:43:25;29.80;38.00
81161;DHT22;70637;48.514;14.500;2023-08-24T00:45:52;29.80;38.00
81161;DHT22;70637;48.514;14.500;2023-08-24T00:48:19;29.80;38.00
81161;DHT22;70637;48.514;14.500;2023-08-24T00:50:46;29.80;38.00
81161;DHT22;70637;48.514;14.500;2023-08-24T00:53:12;29.80;38.00
81161;DHT22;70637;48.514;14.500;2023-08-24T00:55:38;29.80;37.90
81161;DHT22;70637;48.514;14.500;2023-08-24T00:58:04;29.80;37.90
81161;DHT22;70637;48.514;14.500;2023-08-24T01:00:30;29.80;37.90
81161;DHT22;70637;48.514;14.500;2023-08-24T01:02:57;29.80;37.90
81161;DHT22;70637;48.514;14.500;2023-08-24T01:05:22;29.80;38.00
81161;DHT22;70637;48.514;14.500;2023-08-24T01:07:48;29.80;37.90
81161;DHT22;70637;48.514;14.500;2023-08-24T01:10:14;29.80;37.90
81161;DHT22;70637;48.514;14.500;2023-08-24T01:17:38;29.80;37.90
81161;DHT22;70637;48.514;14.500;2023-08-24T01:20:05;29.80;37.70
81161;DHT22;70637;48.514;14.500;2023-08-24T01:25:53;29.80;37.60
81161;DHT22;70637;48.514;14.500;2023-08-24T01:28:20;29.80;37.50
81161;DHT22;70637;48.514;14.500;2023-08-24T01:30:49;29.80;37.60
81161;DHT22;70637;48.514;14.500;2023-08-24T01:33:15;29.80;37.60
81161;DHT22;70637;48.514;14.500;2023-08-24T01:35:41;29.80;37.50
81161;DHT22;70637;48.514;14.500;2023-08-24T01:38:07;29.80;37.50
81161;DHT22;70637;48.514;14.500;2023-08-24T01:40:59;29.80;37.50
81161;DHT22;70637;48.514;14.500;2023-08-24T01:43:31;29.80;37.30
81161;DHT22;70637;48.514;14.500;2023-08-24T01:46:00;29.80;37.30
81161;DHT22;70637;48.514;14.500;2023-08-24T01:48:29;29.70;37.20
81161;DHT22;70637;48.514;14.500;2023-08-24T01:50:55;29.70;38.30
81161;DHT22;70637;48.514;14.500;2023-08-24T01:53:22;29.70;37.20
81161;DHT22;70637;48.514;14.500;2023-08-24T01:55:47;29.70;38.40
81161;DHT22;70637;48.514;14.500;2023-08-24T01:58:13;29.80;37.70
81161;DHT22;70637;48.514;14.500;2023-08-24T02:00:39;29.80;37.70
81161;DHT22;70637;48.514;14.500;2023-08-24T02:03:05;29.80;37.60
81161;DHT22;70637;48.514;14.500;2023-08-24T02:05:30;29.90;37.70
81161;DHT22;70637;48.514;14.500;2023-08-24T02:07:56;29.90;37.80
81161;DHT22;70637;48.514;14.500;2023-08-24T02:10:22;29.90;37.80
81161;DHT22;70637;48.514;14.500;2023-08-24T02:12:48;29.90;37.60
81161;DHT22;70637;48.514;14.500;2023-08-24T02:15:14;29.90;37.70
81161;DHT22;70637;48.514;14.500;2023-08-24T02:17:39;30.00;37.80
81161;DHT22;70637;48.514;14.500;2023-08-24T02:20:06;29.90;37.60
81161;DHT22;70637;48.514;14.500;2023-08-24T02:22:33;30.00;37.70
81161;DHT22;70637;48.514;14.500;2023-08-24T02:24:59;30.00;37.80
81161;DHT22;70637;48.514;14.500;2023-08-24T02:27:26;30.00;37.60
81161;DHT22;70637;48.514;14.500;2023-08-24T02:29:52;30.00;37.60
81161;DHT22;70637;48.514;14.500;2023-08-24T02:32:18;30.00;37.60
81161;DHT22;70637;48.514;14.500;2023-08-24T02:34:44;30.10;37.60
81161;DHT22;70637;48.514;14.500;2023-08-24T02:37:09;30.10;37.60
81161;DHT22;70637;48.514;14.500;2023-08-24T02:39:35;30.10;37.50
81161;DHT22;70637;48.514;14.500;2023-08-24T02:42:01;30.10;37.50
81161;DHT22;70637;48.514;14.500;2023-08-24T02:44:27;30.10;37.50
81161;DHT22;70637;48.514;14.500;2023-08-24T02:46:54;30.10;37.60
81161;DHT22;70637;48.514;14.500;2023-08-24T02:49:19;30.10;37.50
81161;DHT22;70637;48.514;14.500;2023-08-24T02:51:46;30.10;37.50
81161;DHT22;70637;48.514;14.500;2023-08-24T02:54:11;30.10;37.50
81161;DHT22;70637;48.514;14.500;2023-08-24T02:56:37;30.10;37.50
81161;DHT22;70637;48.514;14.500;2023-08-24T02:59:03;30.10;37.50
81161;DHT22;70637;48.514;14.500;2023-08-24T03:01:28;30.10;37.50
81161;DHT22;70637;48.514;14.500;2023-08-24T03:03:54;30.10;37.60
81161;DHT22;70637;48.514;14.500;2023-08-24T03:06:20;30.10;37.50
81161;DHT22;70637;48.514;14.500;2023-08-24T03:08:45;30.20;37.60
81161;DHT22;70637;48.514;14.500;2023-08-24T03:11:11;30.10;37.50
81161;DHT22;70637;48.514;14.500;2023-08-24T03:13:39;30.20;37.60
81161;DHT22;70637;48.514;14.500;2023-08-24T03:16:05;30.20;37.50
81161;DHT22;70637;48.514;14.500;2023-08-24T03:18:31;30.10;37.50
81161;DHT22;70637;48.514;14.500;2023-08-24T03:20:57;30.20;37.60
81161;DHT22;70637;48.514;14.500;2023-08-24T03:23:23;30.20;37.60
81161;DHT22;70637;48.514;14.500;2023-08-24T03:25:48;30.10;37.40
81161;DHT22;70637;48.514;14.500;2023-08-24T03:28:14;30.10;37.40
81161;DHT22;70637;48.514;14.500;2023-08-24T03:30:46;30.10;37.40
81161;DHT22;70637;48.514;14.500;2023-08-24T03:33:12;30.10;37.40
81161;DHT22;70637;48.514;14.500;2023-08-24T03:35:37;30.10;37.40
81161;DHT22;70637;48.514;14.500;2023-08-24T03:38:03;30.20;37.50
81161;DHT22;70637;48.514;14.500;2023-08-24T03:40:29;30.10;37.40
81161;DHT22;70637;48.514;14.500;2023-08-24T03:42:55;30.10;37.40
81161;DHT22;70637;48.514;14.500;2023-08-24T03:45:23;30.10;37.40
81161;DHT22;70637;48.514;14.500;2023-08-24T03:47:50;30.10;37.40
81161;DHT22;70637;48.514;14.500;2023-08-24T03:50:16;30.10;37.40
81161;DHT22;70637;48.514;14.500;2023-08-24T03:52:42;30.10;37.40
81161;DHT22;70637;48.514;14.500;2023-08-24T03:55:07;30.20;37.40
81161;DHT22;70637;48.514;14.500;2023-08-24T03:57:33;30.10;37.30
81161;DHT22;70637;48.514;14.500;2023-08-24T03:59:59;30.10;37.30
81161;DHT22;70637;48.514;14.500;2023-08-24T04:02:25;30.20;37.40
81161;DHT22;70637;48.514;14.500;2023-08-24T04:04:52;30.10;37.30
81161;DHT22;70637;48.514;14.500;2023-08-24T04:07:18;30.10;37.30
81161;DHT22;70637;48.514;14.500;2023-08-24T04:09:43;30.10;37.30
81161;DHT22;70637;48.514;14.500;2023-08-24T04:12:11;30.20;37.40
81161;DHT22;70637;48.514;14.500;2023-08-24T04:14:36;30.10;37.30
81161;DHT22;70637;48.514;14.500;2023-08-24T04:17:02;30.10;37.30
81161;DHT22;70637;48.514;14.500;2023-08-24T04:19:28;30.10;37.30
81161;DHT22;70637;48.514;14.500;2023-08-24T04:21:53;30.10;37.40
81161;DHT22;70637;48.514;14.500;2023-08-24T04:24:19;30.10;37.40
81161;DHT22;70637;48.514;14.500;2023-08-24T04:26:45;30.10;37.40
81161;DHT22;70637;48.514;14.500;2023-08-24T04:29:11;30.10;37.50
81161;DHT22;70637;48.514;14.500;2023-08-24T04:31:37;30.10;37.50
81161;DHT22;70637;48.514;14.500;2023-08-24T04:34:05;30.20;37.60
81161;DHT22;70637;48.514;14.500;2023-08-24T04:36:31;30.10;37.60
81161;DHT22;70637;48.514;14.500;2023-08-24T04:38:56;30.10;37.50
81161;DHT22;70637;48.514;14.500;2023-08-24T04:41:22;30.20;37.40
81161;DHT22;70637;48.514;14.500;2023-08-24T04:43:48;30.10;37.40
81161;DHT22;70637;48.514;14.500;2023-08-24T04:46:15;30.10;37.50
81161;DHT22;70637;48.514;14.500;2023-08-24T04:48:43;30.20;37.40
81161;DHT22;70637;48.514;14.500;2023-08-24T04:51:09;30.20;37.40
81161;DHT22;70637;48.514;14.500;2023-08-24T04:53:34;30.20;37.40
81161;DHT22;70637;48.514;14.500;2023-08-24T04:56:00;30.20;37.30
81161;DHT22;70637;48.514;14.500;2023-08-24T04:58:25;30.20;37.30
81161;DHT22;70637;48.514;14.500;2023-08-24T05:00:51;30.20;37.30
81161;DHT22;70637;48.514;14.500;2023-08-24T05:03:17;30.20;37.30
81161;DHT22;70637;48.514;14.500;2023-08-24T05:05:44;30.20;37.20
81161;DHT22;70637;48.514;14.500;2023-08-24T05:08:10;30.20;37.20
81161;DHT22;70637;48.514;14.500;2023-08-24T05:10:38;30.20;37.30
81161;DHT22;70637;48.514;14.500;2023-08-24T05:13:04;30.20;37.30
81161;DHT22;70637;48.514;14.500;2023-08-24T05:15:30;30.20;37.30
81161;DHT22;70637;48.514;14.500;2023-08-24T05:17:55;30.20;37.20
81161;DHT22;70637;48.514;14.500;2023-08-24T05:20:25;30.20;37.30
81161;DHT22;70637;48.514;14.500;2023-08-24T05:22:51;30.20;37.20
81161;DHT22;70637;48.514;14.500;2023-08-24T05:25:17;30.30;37.30
81161;DHT22;70637;48.514;14.500;2023-08-24T05:27:43;30.20;37.20
81161;DHT22;70637;48.514;14.500;2023-08-24T05:30:09;30.20;37.20
81161;DHT22;70637;48.514;14.500;2023-08-24T05:32:35;30.30;37.20
81161;DHT22;70637;48.514;14.500;2023-08-24T05:35:05;30.30;37.20
81161;DHT22;70637;48.514;14.500;2023-08-24T05:37:31;30.30;37.20
81161;DHT22;70637;48.514;14.500;2023-08-24T05:39:59;30.30;37.20
81161;DHT22;70637;48.514;14.500;2023-08-24T05:42:25;30.30;37.30
81161;DHT22;70637;48.514;14.500;2023-08-24T05:44:51;30.40;37.40
81161;DHT22;70637;48.514;14.500;2023-08-24T05:47:16;30.40;37.20
81161;DHT22;70637;48.514;14.500;2023-08-24T05:49:42;30.40;37.10
81161;DHT22;70637;48.514;14.500;2023-08-24T05:52:08;30.40;37.10
81161;DHT22;70637;48.514;14.500;2023-08-24T05:54:35;30.50;37.20
81161;DHT22;70637;48.514;14.500;2023-08-24T05:57:01;30.40;37.10
81161;DHT22;70637;48.514;14.500;2023-08-24T05:59:29;30.50;37.10
81161;DHT22;70637;48.514;14.500;2023-08-24T06:01:55;30.50;37.10
81161;DHT22;70637;48.514;14.500;2023-08-24T06:04:21;30.50;37.20
81161;DHT22;70637;48.514;14.500;2023-08-24T06:06:47;30.50;37.10
81161;DHT22;70637;48.514;14.500;2023-08-24T06:09:12;30.50;37.10
81161;DHT22;70637;48.514;14.500;2023-08-24T06:11:38;30.50;37.00
81161;DHT22;70637;48.514;14.500;2023-08-24T06:14:06;30.50;37.10
81161;DHT22;70637;48.514;14.500;2023-08-24T06:16:31;30.50;37.00
81161;DHT22;70637;48.514;14.500;2023-08-24T06:18:57;30.60;37.10
81161;DHT22;70637;48.514;14.500;2023-08-24T06:21:23;30.60;37.00
81161;DHT22;70637;48.514;14.500;2023-08-24T06:23:48;30.60;37.10
81161;DHT22;70637;48.514;14.500;2023-08-24T06:26:14;30.60;37.10
81161;DHT22;70637;48.514;14.500;2023-08-24T06:28:40;30.60;37.10
81161;DHT22;70637;48.514;14.500;2023-08-24T06:31:05;30.70;37.00
81161;DHT22;70637;48.514;14.500;2023-08-24T06:33:34;30.70;37.00
81161;DHT22;70637;48.514;14.500;2023-08-24T06:36:01;30.60;37.00
81161;DHT22;70637;48.514;14.500;2023-08-24T06:38:26;30.60;37.00
81161;DHT22;70637;48.514;14.500;2023-08-24T06:40:52;30.70;37.10
81161;DHT22;70637;48.514;14.500;2023-08-24T06:43:18;30.70;37.10
81161;DHT22;70637;48.514;14.500;2023-08-24T06:45:47;30.70;37.10
81161;DHT22;70637;48.514;14.500;2023-08-24T06:48:13;30.80;37.30
81161;DHT22;70637;48.514;14.500;2023-08-24T06:50:39;30.80;37.30
81161;DHT22;70637;48.514;14.500;2023-08-24T06:53:05;30.80;37.40
81161;DHT22;70637;48.514;14.500;2023-08-24T06:55:30;30.90;37.40
81161;DHT22;70637;48.514;14.500;2023-08-24T06:57:56;30.90;37.50
81161;DHT22;70637;48.514;14.500;2023-08-24T07:00:22;30.90;37.50
81161;DHT22;70637;48.514;14.500;2023-08-24T07:02:49;30.90;36.70
81161;DHT22;70637;48.514;14.500;2023-08-24T07:05:15;30.80;36.40
81161;DHT22;70637;48.514;14.500;2023-08-24T07:07:45;30.70;36.40
81161;DHT22;70637;48.514;14.500;2023-08-24T07:10:11;30.50;36.50
81161;DHT22;70637;48.514;14.500;2023-08-24T07:12:37;30.50;36.90
81161;DHT22;70637;48.514;14.500;2023-08-24T07:15:05;30.40;37.20
81161;DHT22;70637;48.514;14.500;2023-08-24T07:17:31;30.40;37.60
81161;DHT22;70637;48.514;14.500;2023-08-24T07:19:56;30.40;37.70
81161;DHT22;70637;48.514;14.500;2023-08-24T07:22:22;30.50;37.90
81161;DHT22;70637;48.514;14.500;2023-08-24T07:24:48;30.50;38.20
81161;DHT22;70637;48.514;14.500;2023-08-24T07:27:18;30.60;38.40
81161;DHT22;70637;48.514;14.500;2023-08-24T07:29:43;30.90;38.20
81161;DHT22;70637;48.514;14.500;2023-08-24T07:32:09;31.20;38.00
81161;DHT22;70637;48.514;14.500;2023-08-24T07:34:35;31.40;37.70
81161;DHT22;70637;48.514;14.500;2023-08-24T07:37:00;31.50;38.00
81161;DHT22;70637;48.514;14.500;2023-08-24T07:39:28;31.60;38.20
81161;DHT22;70637;48.514;14.500;2023-08-24T07:41:53;31.50;38.40
81161;DHT22;70637;48.514;14.500;2023-08-24T07:44:19;31.40;38.80
81161;DHT22;70637;48.514;14.500;2023-08-24T07:46:45;31.30;39.60
81161;DHT22;70637;48.514;14.500;2023-08-24T07:49:10;31.10;40.10
81161;DHT22;70637;48.514;14.500;2023-08-24T07:51:36;31.00;40.60
81161;DHT22;70637;48.514;14.500;2023-08-24T07:54:02;30.80;41.00
81161;DHT22;70637;48.514;14.500;2023-08-24T07:56:30;30.60;41.30
81161;DHT22;70637;48.514;14.500;2023-08-24T07:58:55;30.50;41.50
81161;DHT22;70637;48.514;14.500;2023-08-24T08:01:21;30.50;42.00
81161;DHT22;70637;48.514;14.500;2023-08-24T08:03:46;30.40;42.10
81161;DHT22;70637;48.514;14.500;2023-08-24T08:06:12;30.40;42.40
81161;DHT22;70637;48.514;14.500;2023-08-24T08:08:39;30.30;42.50
81161;DHT22;70637;48.514;14.500;2023-08-24T08:11:04;30.20;42.60
81161;DHT22;70637;48.514;14.500;2023-08-24T08:13:30;30.20;42.80
81161;DHT22;70637;48.514;14.500;2023-08-24T08:16:06;30.20;42.80
81161;DHT22;70637;48.514;14.500;2023-08-24T08:18:33;30.20;43.00
81161;DHT22;70637;48.514;14.500;2023-08-24T08:20:59;30.20;43.00
81161;DHT22;70637;48.514;14.500;2023-08-24T08:23:25;30.10;43.20
81161;DHT22;70637;48.514;14.500;2023-08-24T08:25:51;30.10;43.40
81161;DHT22;70637;48.514;14.500;2023-08-24T08:28:17;30.00;43.70
81161;DHT22;70637;48.514;14.500;2023-08-24T08:30:46;30.00;43.90
81161;DHT22;70637;48.514;14.500;2023-08-24T08:33:13;30.00;44.00
81161;DHT22;70637;48.514;14.500;2023-08-24T08:35:39;29.90;43.90
81161;DHT22;70637;48.514;14.500;2023-08-24T08:38:06;29.90;44.00
81161;DHT22;70637;48.514;14.500;2023-08-24T08:40:35;29.90;43.90
81161;DHT22;70637;48.514;14.500;2023-08-24T08:43:01;29.90;43.50
81161;DHT22;70637;48.514;14.500;2023-08-24T08:45:28;29.90;43.30
81161;DHT22;70637;48.514;14.500;2023-08-24T08:48:01;29.90;42.80
81161;DHT22;70637;48.514;14.500;2023-08-24T08:50:29;29.80;42.60
81161;DHT22;70637;48.514;14.500;2023-08-24T08:52:55;29.90;42.50
81161;DHT22;70637;48.514;14.500;2023-08-24T08:55:22;29.80;42.20
81161;DHT22;70637;48.514;14.500;2023-08-24T08:57:49;29.90;42.10
81161;DHT22;70637;48.514;14.500;2023-08-24T09:00:18;29.90;42.00
81161;DHT22;70637;48.514;14.500;2023-08-24T09:02:45;29.90;41.30
81161;DHT22;70637;48.514;14.500;2023-08-24T09:05:12;30.00;40.90
81161;DHT22;70637;48.514;14.500;2023-08-24T09:07:41;30.00;40.00
81161;DHT22;70637;48.514;14.500;2023-08-24T09:10:07;30.00;39.30
81161;DHT22;70637;48.514;14.500;2023-08-24T09:12:33;30.00;39.40
81161;DHT22;70637;48.514;14.500;2023-08-24T09:14:59;30.00;38.90
81161;DHT22;70637;48.514;14.500;2023-08-24T09:17:25;30.00;38.60
81161;DHT22;70637;48.514;14.500;2023-08-24T09:19:58;30.10;38.50
81161;DHT22;70637;48.514;14.500;2023-08-24T09:22:23;30.10;38.20
81161;DHT22;70637;48.514;14.500;2023-08-24T09:24:49;30.10;37.60
81161;DHT22;70637;48.514;14.500;2023-08-24T09:27:20;30.10;37.20
81161;DHT22;70637;48.514;14.500;2023-08-24T09:29:52;30.10;37.30
81161;DHT22;70637;48.514;14.500;2023-08-24T09:32:27;30.10;37.40
81161;DHT22;70637;48.514;14.500;2023-08-24T09:34:54;30.20;36.80
81161;DHT22;70637;48.514;14.500;2023-08-24T09:37:20;30.20;36.30
81161;DHT22;70637;48.514;14.500;2023-08-24T09:39:46;30.20;36.00
81161;DHT22;70637;48.514;14.500;2023-08-24T09:42:12;30.20;35.80
81161;DHT22;70637;48.514;14.500;2023-08-24T09:44:43;30.20;35.30
81161;DHT22;70637;48.514;14.500;2023-08-24T09:47:12;30.20;35.50
81161;DHT22;70637;48.514;14.500;2023-08-24T09:49:38;30.20;35.80
81161;DHT22;70637;48.514;14.500;2023-08-24T09:52:07;30.30;35.90
81161;DHT22;70637;48.514;14.500;2023-08-24T09:54:37;30.30;35.90
81161;DHT22;70637;48.514;14.500;2023-08-24T09:57:05;30.40;35.70
81161;DHT22;70637;48.514;14.500;2023-08-24T09:59:34;30.40;35.60
81161;DHT22;70637;48.514;14.500;2023-08-24T10:02:00;30.40;35.30
81161;DHT22;70637;48.514;14.500;2023-08-24T10:04:33;30.50;35.20
81161;DHT22;70637;48.514;14.500;2023-08-24T10:07:06;30.50;35.20
81161;DHT22;70637;48.514;14.500;2023-08-24T10:09:45;30.50;35.20
81161;DHT22;70637;48.514;14.500;2023-08-24T10:12:13;30.50;35.20
81161;DHT22;70637;48.514;14.500;2023-08-24T10:14:59;30.60;35.40
81161;DHT22;70637;48.514;14.500;2023-08-24T10:17:29;30.60;35.20
81161;DHT22;70637;48.514;14.500;2023-08-24T10:19:58;30.60;35.30
81161;DHT22;70637;48.514;14.500;2023-08-24T10:22:29;30.60;35.40
81161;DHT22;70637;48.514;14.500;2023-08-24T10:24:56;30.60;35.50
81161;DHT22;70637;48.514;14.500;2023-08-24T10:27:23;30.70;35.60
81161;DHT22;70637;48.514;14.500;2023-08-24T10:29:51;30.70;35.50
81161;DHT22;70637;48.514;14.500;2023-08-24T10:32:21;30.70;35.70
81161;DHT22;70637;48.514;14.500;2023-08-24T10:34:47;30.70;35.80
81161;DHT22;70637;48.514;14.500;2023-08-24T10:37:13;30.70;35.90
81161;DHT22;70637;48.514;14.500;2023-08-24T10:39:46;30.70;35.90
81161;DHT22;70637;48.514;14.500;2023-08-24T10:42:13;30.70;35.90
81161;DHT22;70637;48.514;14.500;2023-08-24T10:44:44;30.80;35.80
81161;DHT22;70637;48.514;14.500;2023-08-24T10:47:13;30.80;35.80
81161;DHT22;70637;48.514;14.500;2023-08-24T10:49:40;30.80;35.50
81161;DHT22;70637;48.514;14.500;2023-08-24T10:54:52;30.90;35.50
81161;DHT22;70637;48.514;14.500;2023-08-24T11:02:40;30.90;36.00
81161;DHT22;70637;48.514;14.500;2023-08-24T11:07:57;31.00;36.40
81161;DHT22;70637;48.514;14.500;2023-08-24T11:13:13;31.00;36.40
81161;DHT22;70637;48.514;14.500;2023-08-24T11:15:40;31.00;36.40
81161;DHT22;70637;48.514;14.500;2023-08-24T11:18:34;31.10;36.40
81161;DHT22;70637;48.514;14.500;2023-08-24T11:21:06;31.10;36.50
81161;DHT22;70637;48.514;14.500;2023-08-24T11:23:32;31.10;36.30
81161;DHT22;70637;48.514;14.500;2023-08-24T11:25:59;31.10;36.10
81161;DHT22;70637;48.514;14.500;2023-08-24T11:28:27;31.10;36.10
81161;DHT22;70637;48.514;14.500;2023-08-24T11:30:54;31.10;36.10
81161;DHT22;70637;48.514;14.500;2023-08-24T11:33:34;31.20;36.30
81161;DHT22;70637;48.514;14.500;2023-08-24T11:36:02;31.20;37.40
81161;DHT22;70637;48.514;14.500;2023-08-24T11:38:38;31.20;36.40
81161;DHT22;70637;48.514;14.500;2023-08-24T11:41:18;31.20;36.40
81161;DHT22;70637;48.514;14.500;2023-08-24T11:43:45;31.20;36.60
81161;DHT22;70637;48.514;14.500;2023-08-24T11:46:12;31.30;36.60
81161;DHT22;70637;48.514;14.500;2023-08-24T11:48:39;31.30;36.60
81161;DHT22;70637;48.514;14.500;2023-08-24T11:51:11;31.30;36.60
81161;DHT22;70637;48.514;14.500;2023-08-24T11:53:42;31.30;36.70
81161;DHT22;70637;48.514;14.500;2023-08-24T11:56:09;31.30;36.70
81161;DHT22;70637;48.514;14.500;2023-08-24T11:58:41;31.40;36.80
81161;DHT22;70637;48.514;14.500;2023-08-24T12:01:08;31.40;36.80
81161;DHT22;70637;48.514;14.500;2023-08-24T12:03:35;31.40;36.80
81161;DHT22;70637;48.514;14.500;2023-08-24T12:06:01;31.40;36.80
81161;DHT22;70637;48.514;14.500;2023-08-24T12:08:29;31.50;36.80
81161;DHT22;70637;48.514;14.500;2023-08-24T12:10:54;31.50;36.70
81161;DHT22;70637;48.514;14.500;2023-08-24T12:13:21;31.50;36.60
81161;DHT22;70637;48.514;14.500;2023-08-24T12:15:47;31.50;36.40
81161;DHT22;70637;48.514;14.500;2023-08-24T12:18:16;31.60;37.40
81161;DHT22;70637;48.514;14.500;2023-08-24T12:20:42;31.60;36.30
81161;DHT22;70637;48.514;14.500;2023-08-24T12:23:09;31.60;36.20
81161;DHT22;70637;48.514;14.500;2023-08-24T12:25:42;31.60;36.10
81161;DHT22;70637;48.514;14.500;2023-08-24T12:28:11;31.70;36.10
81161;DHT22;70637;48.514;14.500;2023-08-24T12:30:51;31.70;36.10
81161;DHT22;70637;48.514;14.500;2023-08-24T12:33:27;31.70;35.80
81161;DHT22;70637;48.514;14.500;2023-08-24T12:35:54;31.70;35.90
81161;DHT22;70637;48.514;14.500;2023-08-24T12:38:22;31.70;35.90
81161;DHT22;70637;48.514;14.500;2023-08-24T12:40:48;31.70;35.80
81161;DHT22;70637;48.514;14.500;2023-08-24T12:43:13;31.70;35.70
81161;DHT22;70637;48.514;14.500;2023-08-24T12:45:40;31.70;35.70
81161;DHT22;70637;48.514;14.500;2023-08-24T12:48:06;31.80;35.80
81161;DHT22;70637;48.514;14.500;2023-08-24T12:50:33;31.80;35.80
81161;DHT22;70637;48.514;14.500;2023-08-24T12:52:59;31.80;35.80
81161;DHT22;70637;48.514;14.500;2023-08-24T12:55:29;31.80;35.70
81161;DHT22;70637;48.514;14.500;2023-08-24T12:57:54;31.80;35.50
81161;DHT22;70637;48.514;14.500;2023-08-24T13:00:20;31.90;35.20
81161;DHT22;70637;48.514;14.500;2023-08-24T13:02:50;31.90;34.80
81161;DHT22;70637;48.514;14.500;2023-08-24T13:05:16;31.90;34.40
81161;DHT22;70637;48.514;14.500;2023-08-24T13:07:42;32.00;34.10
81161;DHT22;70637;48.514;14.500;2023-08-24T13:10:08;32.00;33.60
81161;DHT22;70637;48.514;14.500;2023-08-24T13:12:34;32.00;33.40
81161;DHT22;70637;48.514;14.500;2023-08-24T13:15:01;32.10;33.80
81161;DHT22;70637;48.514;14.500;2023-08-24T13:17:29;32.10;34.20
81161;DHT22;70637;48.514;14.500;2023-08-24T13:19:55;32.10;34.10
81161;DHT22;70637;48.514;14.500;2023-08-24T13:22:20;32.10;34.00
81161;DHT22;70637;48.514;14.500;2023-08-24T13:24:46;32.20;33.70
81161;DHT22;70637;48.514;14.500;2023-08-24T13:27:11;32.20;33.60
81161;DHT22;70637;48.514;14.500;2023-08-24T13:29:37;32.20;33.60
81161;DHT22;70637;48.514;14.500;2023-08-24T13:32:04;32.20;33.30
81161;DHT22;70637;48.514;14.500;2023-08-24T13:34:30;32.30;33.10
81161;DHT22;70637;48.514;14.500;2023-08-24T13:36:57;32.30;32.70
81161;DHT22;70637;48.514;14.500;2023-08-24T13:39:25;32.30;32.60
81161;DHT22;70637;48.514;14.500;2023-08-24T13:41:51;32.30;32.50
81161;DHT22;70637;48.514;14.500;2023-08-24T13:44:16;32.30;32.50
81161;DHT22;70637;48.514;14.500;2023-08-24T13:46:42;32.30;32.50
81161;DHT22;70637;48.514;14.500;2023-08-24T13:49:07;32.40;32.40
81161;DHT22;70637;48.514;14.500;2023-08-24T13:51:34;32.40;32.20
81161;DHT22;70637;48.514;14.500;2023-08-24T13:53:59;32.40;31.60
81161;DHT22;70637;48.514;14.500;2023-08-24T13:56:25;32.40;31.20
81161;DHT22;70637;48.514;14.500;2023-08-24T13:58:51;32.50;31.10
81161;DHT22;70637;48.514;14.500;2023-08-24T14:01:16;32.50;31.20
81161;DHT22;70637;48.514;14.500;2023-08-24T14:03:42;32.50;31.30
81161;DHT22;70637;48.514;14.500;2023-08-24T14:06:09;32.50;31.00
81161;DHT22;70637;48.514;14.500;2023-08-24T14:08:36;32.60;30.80
81161;DHT22;70637;48.514;14.500;2023-08-24T14:11:01;32.50;30.70
81161;DHT22;70637;48.514;14.500;2023-08-24T14:13:28;32.50;30.80
81161;DHT22;70637;48.514;14.500;2023-08-24T14:15:55;32.60;31.90
81161;DHT22;70637;48.514;14.500;2023-08-24T14:18:21;32.60;30.80
81161;DHT22;70637;48.514;14.500;2023-08-24T14:20:47;32.70;30.60
81161;DHT22;70637;48.514;14.500;2023-08-24T14:23:13;32.70;30.40
81161;DHT22;70637;48.514;14.500;2023-08-24T14:25:39;32.70;30.60
81161;DHT22;70637;48.514;14.500;2023-08-24T14:28:04;32.80;30.70
81161;DHT22;70637;48.514;14.500;2023-08-24T14:30:30;32.80;30.50
81161;DHT22;70637;48.514;14.500;2023-08-24T14:32:56;32.70;30.80
81161;DHT22;70637;48.514;14.500;2023-08-24T14:35:21;32.80;30.80
81161;DHT22;70637;48.514;14.500;2023-08-24T14:37:47;32.80;30.70
81161;DHT22;70637;48.514;14.500;2023-08-24T14:40:12;32.80;30.60
81161;DHT22;70637;48.514;14.500;2023-08-24T14:42:41;32.80;30.50
81161;DHT22;70637;48.514;14.500;2023-08-24T14:45:07;32.80;29.70
81161;DHT22;70637;48.514;14.500;2023-08-24T14:47:33;32.80;28.80
81161;DHT22;70637;48.514;14.500;2023-08-24T14:49:59;32.90;28.60
81161;DHT22;70637;48.514;14.500;2023-08-24T14:52:25;32.90;27.80
81161;DHT22;70637;48.514;14.500;2023-08-24T14:54:51;32.80;28.40
81161;DHT22;70637;48.514;14.500;2023-08-24T14:57:17;32.80;27.60
81161;DHT22;70637;48.514;14.500;2023-08-24T14:59:43;32.90;27.80
81161;DHT22;70637;48.514;14.500;2023-08-24T15:02:09;32.90;27.60
81161;DHT22;70637;48.514;14.500;2023-08-24T15:04:34;32.90;27.00
81161;DHT22;70637;48.514;14.500;2023-08-24T15:07:00;32.90;26.80
81161;DHT22;70637;48.514;14.500;2023-08-24T15:09:26;32.90;26.60
81161;DHT22;70637;48.514;14.500;2023-08-24T15:11:51;32.90;26.50
81161;DHT22;70637;48.514;14.500;2023-08-24T15:14:17;32.90;26.20
81161;DHT22;70637;48.514;14.500;2023-08-24T15:16:42;33.00;26.40
81161;DHT22;70637;48.514;14.500;2023-08-24T15:19:10;33.00;26.50
81161;DHT22;70637;48.514;14.500;2023-08-24T15:21:36;33.00;25.90
81161;DHT22;70637;48.514;14.500;2023-08-24T15:24:01;33.00;25.30
81161;DHT22;70637;48.514;14.500;2023-08-24T15:26:27;33.00;25.30
81161;DHT22;70637;48.514;14.500;2023-08-24T15:31:34;33.00;25.50
81161;DHT22;70637;48.514;14.500;2023-08-24T15:34:00;33.00;25.90
81161;DHT22;70637;48.514;14.500;2023-08-24T15:36:26;33.00;26.10
81161;DHT22;70637;48.514;14.500;2023-08-24T15:38:53;33.00;26.60